LEMH/MAH METAR and TAF weather

Enter ICAO airport designator
Station Type Date Time Source
LEMH METAR 2019/06/26 16:00 UTC NOAA

LEMH 261600Z 12011KT 080V140 CAVOK 28/19 Q1019


Station Type Date Time Source
LEMH Decoded METAR 2019/06/26 16:00 UTC NOAA

Menorca / Mahon, Spain (LEMH) 39-52N 004-14E 82M
Jun 26, 2019 - 12:00 PM EDT / 2019.06.26 1600 UTC
Wind: from the ESE (120 degrees) at 13 MPH (11 KT) (direction variable):0
Visibility: greater than 7 mile(s):0
Temperature: 82 F (28 C)
Dew Point: 66 F (19 C)
Relative Humidity: 58%
Pressure (altimeter): 30.09 in. Hg (1019 hPa)
ob: LEMH 261600Z 12011KT 080V140 CAVOK 28/19 Q1019
cycle: 16

Station Type Date Time Source
LEMH TAF 2019/06/26 15:27 UTC NOAA

TAF LEMH 261400Z 2615/2715 10012KT CAVOK TX30/2712Z TN20/2705Z
BECMG 2620/2622 04008KT

Example: see airport list